createdAt,value
2018-12-01T00:00:25.907Z,8.53
2018-12-01T00:02:55.937Z,7.57
2018-12-01T00:05:25.214Z,6.00
2018-12-01T00:07:55.240Z,5.70
2018-12-01T00:10:24.544Z,5.10
2018-12-01T00:12:53.715Z,7.20
2018-12-01T00:15:25.029Z,5.67
2018-12-01T00:17:53.991Z,10.47
2018-12-01T00:20:24.167Z,10.73
2018-12-01T00:22:53.041Z,11.53
2018-12-01T00:25:21.672Z,8.43
2018-12-01T00:27:50.472Z,10.27
2018-12-01T00:30:20.161Z,10.23
2018-12-01T00:32:49.631Z,7.73
2018-12-01T00:35:18.556Z,9.63
2018-12-01T00:37:47.102Z,10.40
2018-12-01T00:40:19.862Z,11.40
2018-12-01T00:42:48.541Z,10.80
2018-12-01T00:45:18.978Z,9.37
2018-12-01T00:47:49.617Z,7.03
2018-12-01T00:50:19.333Z,7.23
2018-12-01T00:52:48.968Z,5.53
2018-12-01T00:55:18.288Z,7.97
2018-12-01T00:57:46.922Z,6.40
2018-12-01T01:00:24.727Z,4.80
2018-12-01T01:02:55.782Z,6.03
2018-12-01T01:05:25.295Z,6.60
2018-12-01T01:07:54.662Z,8.77
2018-12-01T01:10:24.335Z,4.80
2018-12-01T01:12:52.904Z,4.20
2018-12-01T01:15:21.688Z,8.27
2018-12-01T01:17:51.116Z,5.33
2018-12-01T01:20:21.142Z,7.90
2018-12-01T01:22:50.506Z,9.03
2018-12-01T01:25:19.746Z,10.27
2018-12-01T01:27:48.756Z,7.50
2018-12-01T01:30:21.280Z,8.93
2018-12-01T01:32:50.871Z,7.43
2018-12-01T01:35:19.458Z,4.93
2018-12-01T01:37:48.898Z,6.00
2018-12-01T01:40:18.052Z,4.70
2018-12-01T01:42:46.701Z,4.83
2018-12-01T01:45:19.852Z,7.47
2018-12-01T01:47:48.473Z,5.30
2018-12-01T01:50:19.638Z,9.53
2018-12-01T01:52:48.869Z,4.77
2018-12-01T01:55:17.335Z,9.53
2018-12-01T01:57:46.003Z,8.50
2018-12-01T02:00:18.487Z,6.97
2018-12-01T02:02:49.755Z,5.63
2018-12-01T02:05:20.909Z,9.27
2018-12-01T02:07:50.012Z,8.63
2018-12-01T02:10:19.678Z,7.60
2018-12-01T02:12:48.316Z,4.87
2018-12-01T02:15:16.852Z,7.00
2018-12-01T02:17:45.855Z,5.90
2018-12-01T02:20:17.117Z,9.13
2018-12-01T02:22:46.171Z,4.77
2018-12-01T02:25:16.799Z,7.30
2018-12-01T02:27:45.590Z,7.03
2018-12-01T02:30:18.884Z,8.27
2018-12-01T02:32:48.021Z,10.47
2018-12-01T02:35:31.862Z,8.30
2018-12-01T02:38:00.470Z,7.60
2018-12-01T02:40:29.308Z,8.17
2018-12-01T02:42:58.021Z,7.50
2018-12-01T02:45:37.709Z,7.67
2018-12-01T02:48:06.452Z,5.67
2018-12-01T02:50:35.176Z,5.30
2018-12-01T02:53:03.620Z,6.00
2018-12-01T02:55:32.276Z,5.80
2018-12-01T02:58:00.799Z,5.07
2018-12-01T03:00:30.027Z,5.37
2018-12-01T03:02:58.925Z,6.10
2018-12-01T03:05:27.381Z,4.87
2018-12-01T03:07:56.762Z,4.33
2018-12-01T03:10:25.243Z,9.43
2018-12-01T03:12:54.361Z,9.77
2018-12-01T03:15:22.975Z,9.57
2018-12-01T03:17:52.707Z,8.80
2018-12-01T03:20:21.146Z,8.73
2018-12-01T03:22:49.625Z,9.93
2018-12-01T03:25:19.248Z,8.47
2018-12-01T03:27:48.532Z,9.20
2018-12-01T03:30:20.771Z,6.47
2018-12-01T03:32:50.205Z,5.33
2018-12-01T03:35:19.088Z,8.80
2018-12-01T03:37:48.692Z,8.37
2018-12-01T03:40:17.942Z,8.80
2018-12-01T03:42:46.442Z,5.90
2018-12-01T03:45:18.845Z,4.17
2018-12-01T03:47:48.097Z,5.70
2018-12-01T03:50:27.544Z,3.90
2018-12-01T03:52:58.135Z,3.77
2018-12-01T03:55:32.881Z,4.50
2018-12-01T03:58:01.779Z,4.27
2018-12-01T04:00:32.078Z,6.00
2018-12-01T04:03:01.352Z,5.80
2018-12-01T04:05:30.096Z,8.00
2018-12-01T04:07:58.784Z,8.60
2018-12-01T04:10:27.307Z,7.90
2018-12-01T04:12:56.574Z,8.77
2018-12-01T04:15:25.306Z,6.67
2018-12-01T04:17:54.117Z,4.57
2018-12-01T04:20:22.596Z,7.70
2018-12-01T04:22:51.136Z,5.30
2018-12-01T04:25:19.690Z,7.60
2018-12-01T04:27:48.865Z,5.23
2018-12-01T04:30:21.478Z,6.90
2018-12-01T04:32:49.980Z,5.23
2018-12-01T04:35:21.495Z,8.13
2018-12-01T04:37:51.072Z,7.73
2018-12-01T04:40:19.705Z,7.87
2018-12-01T04:42:48.651Z,8.07
2018-12-01T04:45:17.811Z,7.10
2018-12-01T04:47:46.383Z,5.77
2018-12-01T04:50:15.775Z,4.90
2018-12-01T04:52:44.614Z,3.97
2018-12-01T04:55:14.222Z,4.03
2018-12-01T04:57:42.928Z,6.70
2018-12-01T05:00:17.581Z,4.90
2018-12-01T05:02:46.187Z,7.77
2018-12-01T05:05:16.104Z,4.97
2018-12-01T05:07:44.784Z,10.27
2018-12-01T05:10:15.223Z,10.20
2018-12-01T05:12:44.247Z,6.17
2018-12-01T05:15:13.864Z,4.50
2018-12-01T05:17:42.565Z,5.97
2018-12-01T05:20:18.246Z,8.80
2018-12-01T05:22:46.790Z,6.70
2018-12-01T05:25:15.689Z,6.77
2018-12-01T05:27:44.164Z,5.93
2018-12-01T05:30:12.650Z,5.73
2018-12-01T05:32:41.974Z,7.97
2018-12-01T05:35:19.356Z,6.43
2018-12-01T05:37:47.995Z,8.77
2018-12-01T05:40:16.596Z,5.20
2018-12-01T05:42:45.073Z,4.80
2018-12-01T05:45:17.320Z,4.87
2018-12-01T05:47:45.889Z,5.27
2018-12-01T05:50:16.319Z,4.40
2018-12-01T05:52:44.913Z,5.20
2018-12-01T05:55:13.505Z,7.70
2018-12-01T05:57:41.973Z,5.83
2018-12-01T06:00:12.799Z,7.70
2018-12-01T06:02:41.316Z,5.90
2018-12-01T06:05:10.710Z,7.87
2018-12-01T06:07:39.628Z,4.60
2018-12-01T06:10:10.961Z,11.60
2018-12-01T06:12:39.543Z,9.87
2018-12-01T06:15:10.124Z,8.40
2018-12-01T06:17:38.587Z,6.50
2018-12-01T06:20:23.002Z,6.97
2018-12-01T06:22:51.570Z,7.70
2018-12-01T06:25:23.990Z,5.23
2018-12-01T06:27:53.945Z,7.50
2018-12-01T06:30:22.386Z,8.27
2018-12-01T06:32:51.962Z,6.17
2018-12-01T06:35:20.466Z,5.87
2018-12-01T06:37:49.856Z,5.93
2018-12-01T06:40:20.074Z,4.70
2018-12-01T06:42:49.148Z,5.53
2018-12-01T06:45:18.425Z,5.43
2018-12-01T06:47:47.042Z,6.23
2018-12-01T06:50:22.901Z,4.13
2018-12-01T06:52:52.461Z,4.00
2018-12-01T06:55:21.401Z,4.60
2018-12-01T06:57:50.229Z,4.60
2018-12-01T07:00:25.837Z,5.87
2018-12-01T07:02:55.608Z,5.20
2018-12-01T07:05:24.143Z,4.83
2018-12-01T07:07:53.465Z,6.10
2018-12-01T07:10:22.876Z,6.30
2018-12-01T07:12:58.583Z,4.47
2018-12-01T07:15:29.698Z,6.53
2018-12-01T07:17:58.387Z,7.47
2018-12-01T07:20:27.616Z,7.97
2018-12-01T07:22:56.227Z,7.97
2018-12-01T07:25:25.357Z,8.37
2018-12-01T07:27:53.901Z,7.60
2018-12-01T07:30:22.572Z,4.90
2018-12-01T07:32:51.960Z,5.50
2018-12-01T07:35:20.468Z,5.30
2018-12-01T07:37:49.002Z,7.90
2018-12-01T07:40:18.484Z,7.10
2018-12-01T07:42:47.550Z,5.53
2018-12-01T07:45:16.502Z,4.63
2018-12-01T07:47:45.490Z,6.90
2018-12-01T07:50:16.931Z,3.97
2018-12-01T07:52:47.208Z,4.20
2018-12-01T07:55:15.724Z,5.90
2018-12-01T07:57:44.222Z,4.73
2018-12-01T08:00:14.121Z,8.27
2018-12-01T08:02:43.781Z,6.73
2018-12-01T08:05:13.056Z,6.23
2018-12-01T08:07:41.562Z,6.77
2018-12-01T08:10:11.071Z,6.70
2018-12-01T08:12:39.659Z,5.07
2018-12-01T08:15:12.445Z,6.50
2018-12-01T08:17:41.636Z,6.37
2018-12-01T08:20:11.544Z,5.50
2018-12-01T08:22:40.506Z,5.27
2018-12-01T08:25:14.721Z,4.40
2018-12-01T08:27:43.689Z,5.40
2018-12-01T08:30:15.692Z,6.30
2018-12-01T08:32:44.264Z,6.33
2018-12-01T08:35:13.049Z,5.03
2018-12-01T08:37:41.663Z,5.37
2018-12-01T08:40:14.838Z,6.33
2018-12-01T08:42:43.454Z,3.83
2018-12-01T08:45:12.228Z,4.93
2018-12-01T08:47:41.545Z,4.27
2018-12-01T08:50:14.888Z,5.57
2018-12-01T08:52:43.897Z,3.50
2018-12-01T08:55:16.664Z,4.60
2018-12-01T08:57:45.216Z,5.43
2018-12-01T09:00:17.874Z,5.83
2018-12-01T09:02:47.821Z,5.40
2018-12-01T09:05:16.313Z,4.60
2018-12-01T09:07:44.965Z,3.30
2018-12-01T09:10:13.751Z,3.93
2018-12-01T09:12:42.220Z,6.03
2018-12-01T09:15:11.831Z,5.27
2018-12-01T09:17:40.811Z,5.47
2018-12-01T09:20:10.448Z,5.07
2018-12-01T09:22:39.925Z,4.70
2018-12-01T09:25:09.855Z,3.57
2018-12-01T09:27:38.436Z,2.97
2018-12-01T09:30:20.513Z,3.50
2018-12-01T09:32:49.033Z,3.77
2018-12-01T09:35:17.612Z,4.10
2018-12-01T09:37:46.388Z,3.70
2018-12-01T09:40:16.107Z,3.97
2018-12-01T09:42:44.704Z,4.30
2018-12-01T09:45:18.154Z,3.43
2018-12-01T09:47:47.708Z,2.83
2018-12-01T09:50:16.571Z,2.77
2018-12-01T09:52:47.424Z,2.87
2018-12-01T09:55:19.926Z,2.90
2018-12-01T09:57:49.195Z,3.17
2018-12-01T10:00:24.727Z,2.90
2018-12-01T10:02:53.289Z,2.43
2018-12-01T10:05:22.166Z,2.80
2018-12-01T10:07:50.760Z,2.53
2018-12-01T10:10:20.604Z,2.27
2018-12-01T10:12:52.231Z,3.00
2018-12-01T10:15:21.967Z,3.10
2018-12-01T10:17:50.647Z,2.37
2018-12-01T10:20:23.331Z,2.67
2018-12-01T10:22:51.886Z,2.97
2018-12-01T10:25:20.502Z,2.30
2018-12-01T10:27:49.395Z,2.60
2018-12-01T10:30:18.991Z,2.90
2018-12-01T10:32:47.845Z,2.10
2018-12-01T10:35:17.572Z,2.33
2018-12-01T10:37:50.346Z,2.90
2018-12-01T10:40:18.856Z,2.90
2018-12-01T10:42:47.706Z,3.47
2018-12-01T10:45:17.498Z,3.30
2018-12-01T10:47:46.536Z,3.17
2018-12-01T10:50:18.314Z,2.90
2018-12-01T10:52:48.612Z,2.87
2018-12-01T10:55:31.313Z,3.00
2018-12-01T10:58:01.240Z,3.00
2018-12-01T11:00:36.020Z,1.70
2018-12-01T11:03:11.043Z,1.80
2018-12-01T11:05:39.595Z,1.47
2018-12-01T11:08:09.387Z,1.77
2018-12-01T11:10:38.451Z,1.87
2018-12-01T11:13:06.973Z,1.70
2018-12-01T11:15:35.472Z,2.10
2018-12-01T11:18:04.087Z,1.83
2018-12-01T11:20:32.580Z,1.63
2018-12-01T11:23:01.265Z,1.87
2018-12-01T11:25:29.896Z,2.03
2018-12-01T11:27:59.138Z,2.00
2018-12-01T11:30:28.216Z,1.63
2018-12-01T11:32:56.818Z,1.77
2018-12-01T11:35:25.705Z,1.80
2018-12-01T11:37:54.275Z,1.80
2018-12-01T11:40:23.068Z,1.73
2018-12-01T11:42:51.706Z,1.70
2018-12-01T11:45:20.247Z,1.60
2018-12-01T11:47:49.395Z,1.80
2018-12-01T11:50:19.317Z,1.53
2018-12-01T11:52:48.677Z,1.97
2018-12-01T11:55:19.033Z,1.80
2018-12-01T11:57:47.548Z,1.60
2018-12-01T12:00:18.981Z,2.10
2018-12-01T12:02:47.576Z,1.37
2018-12-01T12:05:17.277Z,1.83
2018-12-01T12:07:57.545Z,1.77
2018-12-01T12:10:26.206Z,1.80
2018-12-01T12:12:54.763Z,1.50
2018-12-01T12:15:24.115Z,1.67
2018-12-01T12:17:56.136Z,1.60
2018-12-01T12:20:25.617Z,1.50
2018-12-01T12:22:54.522Z,1.47
2018-12-01T12:25:23.114Z,1.40
2018-12-01T12:27:51.632Z,1.70
2018-12-01T12:30:23.379Z,1.70
2018-12-01T12:32:50.107Z,1.83
2018-12-01T12:35:18.778Z,1.70
2018-12-01T12:37:48.080Z,1.60
2018-12-01T12:40:21.646Z,1.80
2018-12-01T12:42:50.564Z,1.87
2018-12-01T12:45:19.956Z,1.70
2018-12-01T12:47:48.745Z,1.63
2018-12-01T12:50:18.045Z,1.97
2018-12-01T12:52:48.196Z,1.80
2018-12-01T12:55:18.018Z,1.53
2018-12-01T12:57:46.627Z,1.70
2018-12-01T13:00:16.141Z,1.93
2018-12-01T13:02:48.837Z,1.80
2018-12-01T13:05:19.314Z,1.53
2018-12-01T13:07:48.305Z,1.73
2018-12-01T13:10:18.087Z,1.40
2018-12-01T13:12:47.222Z,1.77
2018-12-01T13:15:16.443Z,1.70
2018-12-01T13:17:45.566Z,1.70
2018-12-01T13:20:16.564Z,1.70
2018-12-01T13:22:45.829Z,1.70
2018-12-01T13:25:15.119Z,1.80
2018-12-01T13:27:45.207Z,2.00
2018-12-01T13:30:21.420Z,1.83
2018-12-01T13:32:50.404Z,1.80
2018-12-01T13:35:19.634Z,1.80
2018-12-01T13:37:48.159Z,1.50
2018-12-01T13:40:17.157Z,1.70
2018-12-01T13:42:46.283Z,1.63
2018-12-01T13:45:17.950Z,1.83
2018-12-01T13:47:48.161Z,1.77
2018-12-01T13:50:19.686Z,2.20
2018-12-01T13:52:50.965Z,1.57
2018-12-01T13:55:19.693Z,1.90
2018-12-01T13:57:48.439Z,1.67
2018-12-01T14:00:21.609Z,1.60
2018-12-01T14:02:50.279Z,1.83
2018-12-01T14:05:19.399Z,2.03
2018-12-01T14:07:48.227Z,1.70
2018-12-01T14:10:20.760Z,1.40
2018-12-01T14:12:51.575Z,2.00
2018-12-01T14:15:22.260Z,1.80
2018-12-01T14:17:51.816Z,1.87
2018-12-01T14:20:20.942Z,1.33
2018-12-01T14:22:50.558Z,1.67
2018-12-01T14:25:20.474Z,1.63
2018-12-01T14:28:07.467Z,1.73
2018-12-01T14:30:36.228Z,1.67
2018-12-01T14:33:05.505Z,1.27
2018-12-01T14:35:35.952Z,1.73
2018-12-01T14:38:11.202Z,1.60
2018-12-01T14:40:41.001Z,1.87
2018-12-01T14:43:10.361Z,1.30
2018-12-01T14:45:39.241Z,1.83
2018-12-01T14:48:08.386Z,1.50
2018-12-01T14:50:37.167Z,1.67
2018-12-01T14:53:07.407Z,1.30
2018-12-01T14:55:36.105Z,1.77
2018-12-01T14:58:06.161Z,1.60
2018-12-01T15:00:35.237Z,1.20
2018-12-01T15:03:03.915Z,1.50
2018-12-01T15:05:32.448Z,1.33
2018-12-01T15:08:01.019Z,1.97
2018-12-01T15:10:29.713Z,1.63
2018-12-01T15:12:58.235Z,2.10
2018-12-01T15:15:28.644Z,2.23
2018-12-01T15:17:57.267Z,1.67
2018-12-01T15:20:26.793Z,2.30
2018-12-01T15:22:57.589Z,2.70
2018-12-01T15:25:26.998Z,2.03
2018-12-01T15:27:56.117Z,3.37
2018-12-01T15:30:26.888Z,2.00
2018-12-01T15:33:02.972Z,2.20
2018-12-01T15:35:31.976Z,2.10
2018-12-01T15:38:00.522Z,2.07
2018-12-01T15:40:29.442Z,3.43
2018-12-01T15:42:57.993Z,2.13
2018-12-01T15:45:26.928Z,2.70
2018-12-01T15:47:56.356Z,2.63
2018-12-01T15:50:25.488Z,2.67
2018-12-01T15:52:55.189Z,1.80
2018-12-01T15:55:24.334Z,4.30
2018-12-01T15:57:53.582Z,1.97
2018-12-01T16:00:23.231Z,2.97
2018-12-01T16:02:51.828Z,1.80
2018-12-01T16:05:21.434Z,2.33
2018-12-01T16:07:51.599Z,1.73
2018-12-01T16:10:22.001Z,1.97
2018-12-01T16:12:52.109Z,2.30
2018-12-01T16:15:28.500Z,5.50
2018-12-01T16:17:57.477Z,2.87
2018-12-01T16:20:26.031Z,4.60
2018-12-01T16:22:55.300Z,32.33
2018-12-01T16:25:24.804Z,4.83
2018-12-01T16:27:53.535Z,2.43
2018-12-01T16:30:24.653Z,2.97
2018-12-01T16:32:54.971Z,5.77
2018-12-01T16:35:23.615Z,3.87
2018-12-01T16:37:52.936Z,3.37
2018-12-01T16:41:28.819Z,3.07
2018-12-01T16:43:58.269Z,3.83
2018-12-01T16:46:26.862Z,3.77
2018-12-01T16:48:56.551Z,2.53
2018-12-01T16:51:25.426Z,2.13
2018-12-01T16:53:54.090Z,2.80
2018-12-01T16:56:22.817Z,2.43
2018-12-01T16:58:51.499Z,5.97
2018-12-01T17:01:20.214Z,2.50
2018-12-01T17:03:48.818Z,2.87
2018-12-01T17:06:19.063Z,3.27
2018-12-01T17:08:48.167Z,3.17
2018-12-01T17:11:16.784Z,2.33
2018-12-01T17:13:45.648Z,2.80
2018-12-01T17:16:14.335Z,2.20
2018-12-01T17:18:43.711Z,2.37
2018-12-01T17:21:13.719Z,2.93
2018-12-01T17:23:42.659Z,3.47
2018-12-01T17:26:11.265Z,3.50
2018-12-01T17:28:39.948Z,3.23
2018-12-01T17:31:08.641Z,2.63
2018-12-01T17:33:37.228Z,3.90
2018-12-01T17:36:06.454Z,3.37
2018-12-01T17:38:35.150Z,3.67
2018-12-01T17:41:16.392Z,2.53
2018-12-01T17:43:48.060Z,3.50
2018-12-01T17:46:17.328Z,2.63
2018-12-01T17:48:46.596Z,2.70
2018-12-01T17:51:15.421Z,3.53
2018-12-01T17:53:46.006Z,2.90
2018-12-01T17:56:15.359Z,3.20
2018-12-01T17:58:43.959Z,3.00
2018-12-01T18:01:12.648Z,2.33
2018-12-01T18:03:41.891Z,2.13
2018-12-01T18:06:12.016Z,2.40
2018-12-01T18:08:40.615Z,2.50
2018-12-01T18:11:10.278Z,2.20
2018-12-01T18:13:38.776Z,2.40
2018-12-01T18:16:07.934Z,2.40
2018-12-01T18:18:36.433Z,2.03
2018-12-01T18:21:04.999Z,1.93
2018-12-01T18:23:33.904Z,2.70
2018-12-01T18:26:06.896Z,2.63
2018-12-01T18:28:41.848Z,2.67
2018-12-01T18:31:13.632Z,3.10
2018-12-01T18:33:43.932Z,2.83
2018-12-01T18:36:13.882Z,3.60
2018-12-01T18:38:44.561Z,4.60
2018-12-01T18:41:13.089Z,4.10
2018-12-01T18:43:41.823Z,6.77
2018-12-01T18:46:12.321Z,4.30
2018-12-01T18:48:40.809Z,4.20
2018-12-01T18:51:09.445Z,4.17
2018-12-01T18:53:38.117Z,3.97
2018-12-01T18:56:07.359Z,3.70
2018-12-01T18:58:35.916Z,4.27
2018-12-01T19:01:04.868Z,4.20
2018-12-01T19:03:35.130Z,5.03
2018-12-01T19:06:03.693Z,4.27
2018-12-01T19:08:32.211Z,4.30
2018-12-01T19:11:00.657Z,4.50
2018-12-01T19:13:30.223Z,4.13
2018-12-01T19:15:58.706Z,4.00
2018-12-01T19:18:27.392Z,4.00
2018-12-01T19:20:56.569Z,4.30
2018-12-01T19:23:25.358Z,4.83
2018-12-01T19:25:53.956Z,4.93
2018-12-01T19:28:22.552Z,4.03
2018-12-01T19:30:51.508Z,4.57
2018-12-01T19:33:21.808Z,4.93
2018-12-01T19:35:51.872Z,4.60
2018-12-01T19:38:23.250Z,4.37
2018-12-01T19:40:51.871Z,4.37
2018-12-01T19:43:20.443Z,3.73
2018-12-01T19:45:49.014Z,4.20
2018-12-01T19:48:17.559Z,4.30
2018-12-01T19:50:46.143Z,4.50
2018-12-01T19:53:15.704Z,4.07
2018-12-01T19:55:45.628Z,4.53
2018-12-01T19:58:16.750Z,4.83
2018-12-01T20:00:49.417Z,4.93
2018-12-01T20:03:20.292Z,4.53
2018-12-01T20:05:49.283Z,5.27
2018-12-01T20:08:19.549Z,3.63
2018-12-01T20:10:54.305Z,3.40
2018-12-01T20:13:28.031Z,5.77
2018-12-01T20:16:00.630Z,6.13
2018-12-01T20:18:30.204Z,5.23
2018-12-01T20:20:59.334Z,6.10
2018-12-01T20:23:28.660Z,5.43
2018-12-01T20:25:57.915Z,5.93
2018-12-01T20:28:26.525Z,6.07
2018-12-01T20:30:55.269Z,5.87
2018-12-01T20:33:23.797Z,6.70
2018-12-01T20:35:56.440Z,8.53
2018-12-01T20:38:27.801Z,5.73
2018-12-01T20:40:57.635Z,7.00
2018-12-01T20:43:25.270Z,7.23
2018-12-01T20:45:54.631Z,6.87
2018-12-01T20:48:23.416Z,6.73
2018-12-01T20:50:51.987Z,6.77
2018-12-01T20:53:20.508Z,9.77
2018-12-01T20:55:54.518Z,6.20
2018-12-01T20:58:24.342Z,5.67
2018-12-01T21:00:53.667Z,6.33
2018-12-01T21:03:22.204Z,6.97
2018-12-01T21:05:50.753Z,6.20
2018-12-01T21:08:19.488Z,6.50
2018-12-01T21:10:54.488Z,5.93
2018-12-01T21:13:23.906Z,6.67
2018-12-01T21:15:52.416Z,7.37
2018-12-01T21:18:22.149Z,6.87
2018-12-01T21:20:51.771Z,5.97
2018-12-01T21:23:20.575Z,6.57
2018-12-01T21:25:49.093Z,5.13
2018-12-01T21:28:17.752Z,6.37
2018-12-01T21:30:47.468Z,6.00
2018-12-01T21:33:20.289Z,6.37
2018-12-01T21:35:48.910Z,6.97
2018-12-01T21:38:17.977Z,6.63
2018-12-01T21:40:46.434Z,7.00
2018-12-01T21:43:15.692Z,5.97
2018-12-01T21:45:44.255Z,7.43
2018-12-01T21:48:13.827Z,10.67
2018-12-01T21:50:43.533Z,9.63
2018-12-01T21:53:17.918Z,12.93
2018-12-01T21:55:46.436Z,15.07
2018-12-01T21:58:15.734Z,10.80
2018-12-01T22:00:45.881Z,10.80
2018-12-01T22:03:15.234Z,9.27
2018-12-01T22:05:46.032Z,7.57
2018-12-01T22:08:15.387Z,7.33
2018-12-01T22:10:47.181Z,6.10
2018-12-01T22:13:15.740Z,6.73
2018-12-01T22:15:44.232Z,5.77
2018-12-01T22:18:12.953Z,6.77
2018-12-01T22:20:41.523Z,5.63
2018-12-01T22:23:10.796Z,5.60
2018-12-01T22:25:39.987Z,5.50
2018-12-01T22:28:10.301Z,5.73
2018-12-01T22:30:39.530Z,4.00
2018-12-01T22:33:12.237Z,3.80
2018-12-01T22:35:42.451Z,3.97
2018-12-01T22:38:11.031Z,4.00
2018-12-01T22:40:40.738Z,3.40
2018-12-01T22:43:09.440Z,4.13
2018-12-01T22:45:38.059Z,3.73
2018-12-01T22:48:10.451Z,2.90
2018-12-01T22:50:40.904Z,3.50
2018-12-01T22:53:09.641Z,3.40
2018-12-01T22:55:39.290Z,4.07
2018-12-01T22:58:11.171Z,3.30
2018-12-01T23:00:42.835Z,3.33
2018-12-01T23:03:13.027Z,3.07
2018-12-01T23:05:41.555Z,4.10
2018-12-01T23:08:11.608Z,4.60
2018-12-01T23:10:40.180Z,5.00
2018-12-01T23:13:08.914Z,5.60
2018-12-01T23:15:37.966Z,4.40
2018-12-01T23:18:08.769Z,5.10
2018-12-01T23:20:37.940Z,5.67
2018-12-01T23:23:06.900Z,4.70
2018-12-01T23:25:36.236Z,6.50
2018-12-01T23:28:05.439Z,5.00
2018-12-01T23:30:34.149Z,5.97
2018-12-01T23:33:04.112Z,5.63
2018-12-01T23:35:32.634Z,6.37
2018-12-01T23:38:01.970Z,5.60
2018-12-01T23:40:30.567Z,6.07
2018-12-01T23:42:59.072Z,4.90
2018-12-01T23:45:28.226Z,4.53
2018-12-01T23:47:56.804Z,3.70
2018-12-01T23:50:26.398Z,5.47
2018-12-01T23:52:58.009Z,5.23
2018-12-01T23:55:26.528Z,5.90
2018-12-01T23:57:55.039Z,4.93
